sensor_id;sensor_type;location;lat;lon;timestamp;P1;durP1;ratioP1;P2;durP2;ratioP2
4074;SDS011;2052;53.522;9.806;2022-12-16T00:01:31;41.47;;;23.53;;
4074;SDS011;2052;53.522;9.806;2022-12-16T00:03:59;49.20;;;25.83;;
4074;SDS011;2052;53.522;9.806;2022-12-16T00:06:27;51.00;;;25.03;;
4074;SDS011;2052;53.522;9.806;2022-12-16T00:08:55;44.30;;;23.03;;
4074;SDS011;2052;53.522;9.806;2022-12-16T00:11:22;41.27;;;23.70;;
4074;SDS011;2052;53.522;9.806;2022-12-16T00:13:49;41.53;;;24.00;;
4074;SDS011;2052;53.522;9.806;2022-12-16T00:16:16;50.03;;;24.90;;
4074;SDS011;2052;53.522;9.806;2022-12-16T00:18:44;50.23;;;24.50;;
4074;SDS011;2052;53.522;9.806;2022-12-16T00:21:12;50.43;;;23.87;;
4074;SDS011;2052;53.522;9.806;2022-12-16T00:23:39;46.33;;;23.90;;
4074;SDS011;2052;53.522;9.806;2022-12-16T00:26:06;47.60;;;23.53;;
4074;SDS011;2052;53.522;9.806;2022-12-16T00:28:33;47.77;;;25.10;;
4074;SDS011;2052;53.522;9.806;2022-12-16T00:31:00;61.43;;;24.00;;
4074;SDS011;2052;53.522;9.806;2022-12-16T00:33:27;54.03;;;24.97;;
4074;SDS011;2052;53.522;9.806;2022-12-16T00:35:54;52.87;;;25.70;;
4074;SDS011;2052;53.522;9.806;2022-12-16T00:38:24;45.43;;;22.27;;
4074;SDS011;2052;53.522;9.806;2022-12-16T00:40:52;40.83;;;23.20;;
4074;SDS011;2052;53.522;9.806;2022-12-16T00:43:19;46.07;;;25.23;;
4074;SDS011;2052;53.522;9.806;2022-12-16T00:45:46;49.90;;;24.83;;
4074;SDS011;2052;53.522;9.806;2022-12-16T00:48:13;48.50;;;23.30;;
4074;SDS011;2052;53.522;9.806;2022-12-16T00:50:40;54.20;;;24.80;;
4074;SDS011;2052;53.522;9.806;2022-12-16T00:53:08;43.60;;;23.63;;
4074;SDS011;2052;53.522;9.806;2022-12-16T00:55:37;44.90;;;25.90;;
4074;SDS011;2052;53.522;9.806;2022-12-16T00:58:03;51.03;;;27.30;;
4074;SDS011;2052;53.522;9.806;2022-12-16T01:00:32;42.77;;;22.57;;
4074;SDS011;2052;53.522;9.806;2022-12-16T01:02:58;46.03;;;23.53;;
4074;SDS011;2052;53.522;9.806;2022-12-16T01:05:26;49.43;;;26.27;;
4074;SDS011;2052;53.522;9.806;2022-12-16T01:07:53;46.80;;;23.00;;
4074;SDS011;2052;53.522;9.806;2022-12-16T01:10:20;45.63;;;24.43;;
4074;SDS011;2052;53.522;9.806;2022-12-16T01:12:48;44.17;;;24.17;;
4074;SDS011;2052;53.522;9.806;2022-12-16T01:15:15;49.73;;;24.23;;
4074;SDS011;2052;53.522;9.806;2022-12-16T01:17:43;46.30;;;25.10;;
4074;SDS011;2052;53.522;9.806;2022-12-16T01:20:10;47.70;;;24.30;;
4074;SDS011;2052;53.522;9.806;2022-12-16T01:22:38;45.93;;;24.80;;
4074;SDS011;2052;53.522;9.806;2022-12-16T01:25:05;67.73;;;25.37;;
4074;SDS011;2052;53.522;9.806;2022-12-16T01:27:32;49.57;;;25.10;;
4074;SDS011;2052;53.522;9.806;2022-12-16T01:30:00;55.27;;;25.93;;
4074;SDS011;2052;53.522;9.806;2022-12-16T01:32:27;51.77;;;25.50;;
4074;SDS011;2052;53.522;9.806;2022-12-16T01:34:54;49.10;;;24.30;;
4074;SDS011;2052;53.522;9.806;2022-12-16T01:37:21;54.17;;;23.53;;
4074;SDS011;2052;53.522;9.806;2022-12-16T01:39:48;52.10;;;25.20;;
4074;SDS011;2052;53.522;9.806;2022-12-16T01:42:16;44.83;;;25.00;;
4074;SDS011;2052;53.522;9.806;2022-12-16T01:44:45;46.73;;;24.97;;
4074;SDS011;2052;53.522;9.806;2022-12-16T01:47:15;51.60;;;24.83;;
4074;SDS011;2052;53.522;9.806;2022-12-16T01:49:44;43.33;;;23.60;;
4074;SDS011;2052;53.522;9.806;2022-12-16T01:52:13;49.03;;;24.70;;
4074;SDS011;2052;53.522;9.806;2022-12-16T01:54:43;45.87;;;23.87;;
4074;SDS011;2052;53.522;9.806;2022-12-16T01:57:16;51.47;;;25.10;;
4074;SDS011;2052;53.522;9.806;2022-12-16T01:59:45;49.00;;;25.77;;
4074;SDS011;2052;53.522;9.806;2022-12-16T02:02:15;46.43;;;24.00;;
4074;SDS011;2052;53.522;9.806;2022-12-16T02:04:42;53.40;;;24.53;;
4074;SDS011;2052;53.522;9.806;2022-12-16T02:07:30;41.10;;;22.57;;
4074;SDS011;2052;53.522;9.806;2022-12-16T02:09:57;46.67;;;22.77;;
4074;SDS011;2052;53.522;9.806;2022-12-16T02:12:25;47.10;;;24.33;;
4074;SDS011;2052;53.522;9.806;2022-12-16T02:14:58;44.87;;;22.97;;
4074;SDS011;2052;53.522;9.806;2022-12-16T02:17:34;50.60;;;24.50;;
4074;SDS011;2052;53.522;9.806;2022-12-16T02:23:09;46.83;;;22.27;;
4074;SDS011;2052;53.522;9.806;2022-12-16T02:29:03;48.77;;;24.77;;
4074;SDS011;2052;53.522;9.806;2022-12-16T02:31:42;53.10;;;25.40;;
4074;SDS011;2052;53.522;9.806;2022-12-16T02:34:12;41.43;;;22.20;;
4074;SDS011;2052;53.522;9.806;2022-12-16T02:36:49;50.33;;;24.50;;
4074;SDS011;2052;53.522;9.806;2022-12-16T02:39:22;43.57;;;22.97;;
4074;SDS011;2052;53.522;9.806;2022-12-16T02:41:53;47.87;;;23.50;;
4074;SDS011;2052;53.522;9.806;2022-12-16T02:44:24;45.33;;;22.63;;
4074;SDS011;2052;53.522;9.806;2022-12-16T02:46:57;46.97;;;23.87;;
4074;SDS011;2052;53.522;9.806;2022-12-16T02:52:11;43.17;;;22.90;;
4074;SDS011;2052;53.522;9.806;2022-12-16T02:54:39;42.37;;;23.03;;
4074;SDS011;2052;53.522;9.806;2022-12-16T02:57:10;46.63;;;23.03;;
4074;SDS011;2052;53.522;9.806;2022-12-16T02:59:55;41.67;;;23.30;;
4074;SDS011;2052;53.522;9.806;2022-12-16T03:02:28;47.90;;;24.07;;
4074;SDS011;2052;53.522;9.806;2022-12-16T03:05:02;42.73;;;20.40;;
4074;SDS011;2052;53.522;9.806;2022-12-16T03:07:32;42.83;;;21.53;;
4074;SDS011;2052;53.522;9.806;2022-12-16T03:10:01;48.83;;;23.00;;
4074;SDS011;2052;53.522;9.806;2022-12-16T03:12:29;41.27;;;22.10;;
4074;SDS011;2052;53.522;9.806;2022-12-16T03:14:56;49.60;;;24.67;;
4074;SDS011;2052;53.522;9.806;2022-12-16T03:17:23;43.37;;;23.40;;
4074;SDS011;2052;53.522;9.806;2022-12-16T03:19:53;46.10;;;23.37;;
4074;SDS011;2052;53.522;9.806;2022-12-16T03:22:24;44.00;;;22.27;;
4074;SDS011;2052;53.522;9.806;2022-12-16T03:24:53;41.23;;;22.07;;
4074;SDS011;2052;53.522;9.806;2022-12-16T03:27:22;44.13;;;22.57;;
4074;SDS011;2052;53.522;9.806;2022-12-16T03:29:52;50.23;;;24.03;;
4074;SDS011;2052;53.522;9.806;2022-12-16T03:32:26;52.27;;;24.83;;
4074;SDS011;2052;53.522;9.806;2022-12-16T03:34:58;56.17;;;24.17;;
4074;SDS011;2052;53.522;9.806;2022-12-16T03:37:28;46.03;;;22.77;;
4074;SDS011;2052;53.522;9.806;2022-12-16T03:39:59;57.17;;;24.40;;
4074;SDS011;2052;53.522;9.806;2022-12-16T03:42:27;44.07;;;23.47;;
4074;SDS011;2052;53.522;9.806;2022-12-16T03:44:54;43.73;;;23.07;;
4074;SDS011;2052;53.522;9.806;2022-12-16T03:47:20;50.60;;;25.03;;
4074;SDS011;2052;53.522;9.806;2022-12-16T03:49:47;52.77;;;24.90;;
4074;SDS011;2052;53.522;9.806;2022-12-16T03:52:15;50.97;;;25.13;;
4074;SDS011;2052;53.522;9.806;2022-12-16T03:54:42;46.57;;;24.33;;
4074;SDS011;2052;53.522;9.806;2022-12-16T03:57:09;42.73;;;20.87;;
4074;SDS011;2052;53.522;9.806;2022-12-16T03:59:36;40.60;;;23.53;;
4074;SDS011;2052;53.522;9.806;2022-12-16T04:02:03;53.67;;;22.47;;
4074;SDS011;2052;53.522;9.806;2022-12-16T04:04:30;43.97;;;23.00;;
4074;SDS011;2052;53.522;9.806;2022-12-16T04:06:57;46.23;;;23.07;;
4074;SDS011;2052;53.522;9.806;2022-12-16T04:09:43;48.03;;;23.50;;
4074;SDS011;2052;53.522;9.806;2022-12-16T04:12:09;46.70;;;22.73;;
4074;SDS011;2052;53.522;9.806;2022-12-16T04:14:54;44.33;;;22.80;;
4074;SDS011;2052;53.522;9.806;2022-12-16T04:17:38;49.73;;;23.23;;
4074;SDS011;2052;53.522;9.806;2022-12-16T04:20:22;44.03;;;23.23;;
4074;SDS011;2052;53.522;9.806;2022-12-16T04:23:11;45.70;;;22.63;;
4074;SDS011;2052;53.522;9.806;2022-12-16T04:25:57;48.57;;;23.17;;
4074;SDS011;2052;53.522;9.806;2022-12-16T04:28:24;42.57;;;22.60;;
4074;SDS011;2052;53.522;9.806;2022-12-16T04:30:50;51.97;;;24.87;;
4074;SDS011;2052;53.522;9.806;2022-12-16T04:33:17;55.93;;;26.80;;
4074;SDS011;2052;53.522;9.806;2022-12-16T04:36:02;44.13;;;22.90;;
4074;SDS011;2052;53.522;9.806;2022-12-16T04:38:58;50.57;;;22.03;;
4074;SDS011;2052;53.522;9.806;2022-12-16T04:41:44;50.70;;;24.03;;
4074;SDS011;2052;53.522;9.806;2022-12-16T04:44:28;48.20;;;22.07;;
4074;SDS011;2052;53.522;9.806;2022-12-16T04:47:12;49.70;;;22.83;;
4074;SDS011;2052;53.522;9.806;2022-12-16T04:49:57;50.73;;;26.40;;
4074;SDS011;2052;53.522;9.806;2022-12-16T04:52:41;52.73;;;23.67;;
4074;SDS011;2052;53.522;9.806;2022-12-16T04:55:25;42.73;;;21.30;;
4074;SDS011;2052;53.522;9.806;2022-12-16T04:58:11;53.07;;;25.83;;
4074;SDS011;2052;53.522;9.806;2022-12-16T05:00:55;52.53;;;23.60;;
4074;SDS011;2052;53.522;9.806;2022-12-16T05:03:39;55.57;;;25.10;;
4074;SDS011;2052;53.522;9.806;2022-12-16T05:06:23;40.10;;;21.13;;
4074;SDS011;2052;53.522;9.806;2022-12-16T05:09:08;51.10;;;23.57;;
4074;SDS011;2052;53.522;9.806;2022-12-16T05:11:52;40.80;;;22.40;;
4074;SDS011;2052;53.522;9.806;2022-12-16T05:14:37;51.60;;;23.93;;
4074;SDS011;2052;53.522;9.806;2022-12-16T05:17:22;50.27;;;23.13;;
4074;SDS011;2052;53.522;9.806;2022-12-16T05:20:06;50.30;;;24.47;;
4074;SDS011;2052;53.522;9.806;2022-12-16T05:22:56;49.73;;;24.70;;
4074;SDS011;2052;53.522;9.806;2022-12-16T05:25:41;48.50;;;23.00;;
4074;SDS011;2052;53.522;9.806;2022-12-16T05:28:25;55.33;;;24.20;;
4074;SDS011;2052;53.522;9.806;2022-12-16T05:31:11;45.30;;;23.23;;
4074;SDS011;2052;53.522;9.806;2022-12-16T05:33:55;48.00;;;25.20;;
4074;SDS011;2052;53.522;9.806;2022-12-16T05:36:40;52.07;;;24.63;;
4074;SDS011;2052;53.522;9.806;2022-12-16T05:39:24;46.70;;;25.03;;
4074;SDS011;2052;53.522;9.806;2022-12-16T05:42:08;54.47;;;25.83;;
4074;SDS011;2052;53.522;9.806;2022-12-16T05:44:58;50.77;;;24.57;;
4074;SDS011;2052;53.522;9.806;2022-12-16T05:47:56;51.37;;;24.40;;
4074;SDS011;2052;53.522;9.806;2022-12-16T05:50:40;48.67;;;23.67;;
4074;SDS011;2052;53.522;9.806;2022-12-16T05:53:24;54.90;;;23.73;;
4074;SDS011;2052;53.522;9.806;2022-12-16T05:56:08;48.30;;;23.77;;
4074;SDS011;2052;53.522;9.806;2022-12-16T05:58:52;51.20;;;22.37;;
4074;SDS011;2052;53.522;9.806;2022-12-16T06:01:36;51.57;;;23.10;;
4074;SDS011;2052;53.522;9.806;2022-12-16T06:04:22;49.90;;;23.93;;
4074;SDS011;2052;53.522;9.806;2022-12-16T06:07:06;51.07;;;23.63;;
4074;SDS011;2052;53.522;9.806;2022-12-16T06:09:49;43.03;;;24.83;;
4074;SDS011;2052;53.522;9.806;2022-12-16T06:12:33;44.70;;;24.47;;
4074;SDS011;2052;53.522;9.806;2022-12-16T06:15:18;46.17;;;23.27;;
4074;SDS011;2052;53.522;9.806;2022-12-16T06:18:02;45.17;;;23.80;;
4074;SDS011;2052;53.522;9.806;2022-12-16T06:20:47;53.47;;;25.67;;
4074;SDS011;2052;53.522;9.806;2022-12-16T06:23:31;54.30;;;23.80;;
4074;SDS011;2052;53.522;9.806;2022-12-16T06:26:27;58.90;;;24.20;;
4074;SDS011;2052;53.522;9.806;2022-12-16T06:29:11;44.13;;;23.87;;
4074;SDS011;2052;53.522;9.806;2022-12-16T06:31:55;52.17;;;24.80;;
4074;SDS011;2052;53.522;9.806;2022-12-16T06:34:40;48.20;;;25.17;;
4074;SDS011;2052;53.522;9.806;2022-12-16T06:37:25;50.47;;;25.33;;
4074;SDS011;2052;53.522;9.806;2022-12-16T06:40:09;54.40;;;26.90;;
4074;SDS011;2052;53.522;9.806;2022-12-16T06:42:54;58.53;;;27.23;;
4074;SDS011;2052;53.522;9.806;2022-12-16T06:45:38;56.37;;;27.17;;
4074;SDS011;2052;53.522;9.806;2022-12-16T06:48:22;44.33;;;24.83;;
4074;SDS011;2052;53.522;9.806;2022-12-16T06:51:06;52.43;;;24.83;;
4074;SDS011;2052;53.522;9.806;2022-12-16T06:53:52;61.13;;;26.53;;
4074;SDS011;2052;53.522;9.806;2022-12-16T06:56:48;57.23;;;25.77;;
4074;SDS011;2052;53.522;9.806;2022-12-16T06:59:31;53.40;;;24.43;;
4074;SDS011;2052;53.522;9.806;2022-12-16T07:02:16;52.57;;;24.13;;
4074;SDS011;2052;53.522;9.806;2022-12-16T07:05:00;51.53;;;25.70;;
4074;SDS011;2052;53.522;9.806;2022-12-16T07:07:47;49.13;;;23.30;;
4074;SDS011;2052;53.522;9.806;2022-12-16T07:10:33;50.57;;;26.33;;
4074;SDS011;2052;53.522;9.806;2022-12-16T07:13:18;53.40;;;25.70;;
4074;SDS011;2052;53.522;9.806;2022-12-16T07:16:02;85.67;;;24.83;;
4074;SDS011;2052;53.522;9.806;2022-12-16T07:18:46;46.07;;;23.80;;
4074;SDS011;2052;53.522;9.806;2022-12-16T07:21:31;66.20;;;25.90;;
4074;SDS011;2052;53.522;9.806;2022-12-16T07:24:15;47.17;;;25.20;;
4074;SDS011;2052;53.522;9.806;2022-12-16T07:27:00;47.50;;;22.73;;
4074;SDS011;2052;53.522;9.806;2022-12-16T07:29:44;47.80;;;23.60;;
4074;SDS011;2052;53.522;9.806;2022-12-16T07:32:29;45.57;;;24.00;;
4074;SDS011;2052;53.522;9.806;2022-12-16T07:35:13;48.00;;;26.73;;
4074;SDS011;2052;53.522;9.806;2022-12-16T07:37:57;49.90;;;26.00;;
4074;SDS011;2052;53.522;9.806;2022-12-16T07:40:41;48.43;;;27.07;;
4074;SDS011;2052;53.522;9.806;2022-12-16T07:43:26;57.83;;;27.13;;
4074;SDS011;2052;53.522;9.806;2022-12-16T07:46:10;65.17;;;27.67;;
4074;SDS011;2052;53.522;9.806;2022-12-16T07:49:09;53.90;;;26.87;;
4074;SDS011;2052;53.522;9.806;2022-12-16T07:51:53;50.13;;;24.80;;
4074;SDS011;2052;53.522;9.806;2022-12-16T07:54:37;48.97;;;27.77;;
4074;SDS011;2052;53.522;9.806;2022-12-16T07:57:21;50.67;;;24.97;;
4074;SDS011;2052;53.522;9.806;2022-12-16T08:00:07;58.03;;;24.87;;
4074;SDS011;2052;53.522;9.806;2022-12-16T08:02:52;50.97;;;25.37;;
4074;SDS011;2052;53.522;9.806;2022-12-16T08:05:37;54.30;;;26.60;;
4074;SDS011;2052;53.522;9.806;2022-12-16T08:08:21;52.90;;;24.53;;
4074;SDS011;2052;53.522;9.806;2022-12-16T08:11:05;55.70;;;25.27;;
4074;SDS011;2052;53.522;9.806;2022-12-16T08:13:49;56.30;;;25.03;;
4074;SDS011;2052;53.522;9.806;2022-12-16T08:16:34;60.83;;;28.60;;
4074;SDS011;2052;53.522;9.806;2022-12-16T08:19:19;70.23;;;28.60;;
4074;SDS011;2052;53.522;9.806;2022-12-16T08:22:03;60.63;;;27.97;;
4074;SDS011;2052;53.522;9.806;2022-12-16T08:24:48;58.13;;;28.10;;
4074;SDS011;2052;53.522;9.806;2022-12-16T08:27:32;61.23;;;29.33;;
4074;SDS011;2052;53.522;9.806;2022-12-16T08:30:16;63.87;;;28.50;;
4074;SDS011;2052;53.522;9.806;2022-12-16T08:33:02;53.23;;;29.63;;
4074;SDS011;2052;53.522;9.806;2022-12-16T08:35:46;56.33;;;28.27;;
4074;SDS011;2052;53.522;9.806;2022-12-16T08:38:31;62.63;;;30.30;;
4074;SDS011;2052;53.522;9.806;2022-12-16T08:41:15;61.60;;;30.23;;
4074;SDS011;2052;53.522;9.806;2022-12-16T08:43:59;59.07;;;28.33;;
4074;SDS011;2052;53.522;9.806;2022-12-16T08:46:43;56.33;;;28.47;;
4074;SDS011;2052;53.522;9.806;2022-12-16T08:49:29;52.20;;;27.77;;
4074;SDS011;2052;53.522;9.806;2022-12-16T08:52:13;62.73;;;28.30;;
4074;SDS011;2052;53.522;9.806;2022-12-16T08:54:57;59.80;;;28.27;;
4074;SDS011;2052;53.522;9.806;2022-12-16T08:57:41;50.43;;;28.30;;
4074;SDS011;2052;53.522;9.806;2022-12-16T09:00:25;56.00;;;27.07;;
4074;SDS011;2052;53.522;9.806;2022-12-16T09:03:09;57.50;;;30.10;;
4074;SDS011;2052;53.522;9.806;2022-12-16T09:05:57;65.17;;;31.63;;
4074;SDS011;2052;53.522;9.806;2022-12-16T09:08:41;54.70;;;30.70;;
4074;SDS011;2052;53.522;9.806;2022-12-16T09:11:25;67.77;;;31.30;;
4074;SDS011;2052;53.522;9.806;2022-12-16T09:14:10;63.50;;;29.87;;
4074;SDS011;2052;53.522;9.806;2022-12-16T09:16:54;65.80;;;31.80;;
4074;SDS011;2052;53.522;9.806;2022-12-16T09:19:38;59.47;;;29.00;;
4074;SDS011;2052;53.522;9.806;2022-12-16T09:22:24;59.30;;;27.57;;
4074;SDS011;2052;53.522;9.806;2022-12-16T09:25:08;64.23;;;31.17;;
4074;SDS011;2052;53.522;9.806;2022-12-16T09:27:52;56.57;;;27.97;;
4074;SDS011;2052;53.522;9.806;2022-12-16T09:30:36;61.37;;;31.30;;
4074;SDS011;2052;53.522;9.806;2022-12-16T09:33:20;62.57;;;30.10;;
4074;SDS011;2052;53.522;9.806;2022-12-16T09:36:04;62.53;;;30.80;;
4074;SDS011;2052;53.522;9.806;2022-12-16T09:38:50;55.57;;;29.47;;
4074;SDS011;2052;53.522;9.806;2022-12-16T09:41:38;53.67;;;27.90;;
4074;SDS011;2052;53.522;9.806;2022-12-16T09:44:37;58.37;;;25.63;;
4074;SDS011;2052;53.522;9.806;2022-12-16T09:47:30;55.47;;;27.50;;
4074;SDS011;2052;53.522;9.806;2022-12-16T09:50:18;57.10;;;29.50;;
4074;SDS011;2052;53.522;9.806;2022-12-16T09:53:04;55.67;;;26.30;;
4074;SDS011;2052;53.522;9.806;2022-12-16T09:55:53;61.87;;;28.97;;
4074;SDS011;2052;53.522;9.806;2022-12-16T09:58:38;57.00;;;29.40;;
4074;SDS011;2052;53.522;9.806;2022-12-16T10:01:24;64.63;;;30.03;;
4074;SDS011;2052;53.522;9.806;2022-12-16T10:04:08;56.50;;;27.40;;
4074;SDS011;2052;53.522;9.806;2022-12-16T10:06:54;59.87;;;27.63;;
4074;SDS011;2052;53.522;9.806;2022-12-16T10:09:42;55.10;;;28.27;;
4074;SDS011;2052;53.522;9.806;2022-12-16T10:12:34;56.30;;;29.27;;
4074;SDS011;2052;53.522;9.806;2022-12-16T10:15:28;54.90;;;28.67;;
4074;SDS011;2052;53.522;9.806;2022-12-16T10:18:18;59.87;;;30.10;;
4074;SDS011;2052;53.522;9.806;2022-12-16T10:21:10;52.93;;;27.80;;
4074;SDS011;2052;53.522;9.806;2022-12-16T10:23:59;70.27;;;30.20;;
4074;SDS011;2052;53.522;9.806;2022-12-16T10:26:48;58.53;;;28.40;;
4074;SDS011;2052;53.522;9.806;2022-12-16T10:29:38;54.90;;;27.97;;
4074;SDS011;2052;53.522;9.806;2022-12-16T10:32:26;64.00;;;28.63;;
4074;SDS011;2052;53.522;9.806;2022-12-16T10:35:16;51.30;;;28.30;;
4074;SDS011;2052;53.522;9.806;2022-12-16T10:38:14;50.50;;;29.10;;
4074;SDS011;2052;53.522;9.806;2022-12-16T10:41:03;64.80;;;28.43;;
4074;SDS011;2052;53.522;9.806;2022-12-16T10:43:49;50.53;;;27.90;;
4074;SDS011;2052;53.522;9.806;2022-12-16T10:46:35;63.03;;;29.33;;
4074;SDS011;2052;53.522;9.806;2022-12-16T10:49:19;60.20;;;28.60;;
4074;SDS011;2052;53.522;9.806;2022-12-16T10:52:04;62.33;;;31.30;;
4074;SDS011;2052;53.522;9.806;2022-12-16T10:54:50;65.73;;;29.77;;
4074;SDS011;2052;53.522;9.806;2022-12-16T10:57:43;53.43;;;28.13;;
4074;SDS011;2052;53.522;9.806;2022-12-16T11:00:40;54.70;;;29.30;;
4074;SDS011;2052;53.522;9.806;2022-12-16T11:03:28;48.00;;;26.90;;
4074;SDS011;2052;53.522;9.806;2022-12-16T11:06:15;50.47;;;27.80;;
4074;SDS011;2052;53.522;9.806;2022-12-16T11:09:12;73.53;;;31.80;;
4074;SDS011;2052;53.522;9.806;2022-12-16T11:11:58;50.40;;;28.20;;
4074;SDS011;2052;53.522;9.806;2022-12-16T11:14:56;59.80;;;31.27;;
4074;SDS011;2052;53.522;9.806;2022-12-16T11:17:40;80.57;;;38.47;;
4074;SDS011;2052;53.522;9.806;2022-12-16T11:20:46;72.67;;;35.20;;
4074;SDS011;2052;53.522;9.806;2022-12-16T11:23:47;73.43;;;32.67;;
4074;SDS011;2052;53.522;9.806;2022-12-16T11:26:31;60.17;;;31.53;;
4074;SDS011;2052;53.522;9.806;2022-12-16T11:29:16;61.57;;;27.73;;
4074;SDS011;2052;53.522;9.806;2022-12-16T11:32:02;63.30;;;30.30;;
4074;SDS011;2052;53.522;9.806;2022-12-16T11:34:50;56.10;;;28.80;;
4074;SDS011;2052;53.522;9.806;2022-12-16T11:37:37;56.60;;;29.43;;
4074;SDS011;2052;53.522;9.806;2022-12-16T11:40:23;58.97;;;31.77;;
4074;SDS011;2052;53.522;9.806;2022-12-16T11:43:07;60.40;;;30.40;;
4074;SDS011;2052;53.522;9.806;2022-12-16T11:45:53;56.50;;;29.83;;
4074;SDS011;2052;53.522;9.806;2022-12-16T11:48:39;64.77;;;31.67;;
4074;SDS011;2052;53.522;9.806;2022-12-16T11:51:26;61.83;;;32.63;;
4074;SDS011;2052;53.522;9.806;2022-12-16T11:54:16;62.77;;;30.87;;
4074;SDS011;2052;53.522;9.806;2022-12-16T11:57:01;56.83;;;29.37;;
4074;SDS011;2052;53.522;9.806;2022-12-16T11:59:49;55.00;;;29.47;;
4074;SDS011;2052;53.522;9.806;2022-12-16T12:02:36;58.90;;;29.27;;
4074;SDS011;2052;53.522;9.806;2022-12-16T12:05:25;58.93;;;31.37;;
4074;SDS011;2052;53.522;9.806;2022-12-16T12:08:11;53.63;;;29.13;;
4074;SDS011;2052;53.522;9.806;2022-12-16T12:11:03;59.13;;;33.90;;
4074;SDS011;2052;53.522;9.806;2022-12-16T12:13:56;57.57;;;28.47;;
4074;SDS011;2052;53.522;9.806;2022-12-16T12:16:49;60.53;;;30.23;;
4074;SDS011;2052;53.522;9.806;2022-12-16T12:19:41;49.77;;;27.50;;
4074;SDS011;2052;53.522;9.806;2022-12-16T12:22:33;57.77;;;30.30;;
4074;SDS011;2052;53.522;9.806;2022-12-16T12:25:20;50.13;;;30.07;;
4074;SDS011;2052;53.522;9.806;2022-12-16T12:28:11;61.77;;;31.27;;
4074;SDS011;2052;53.522;9.806;2022-12-16T12:31:04;63.50;;;32.63;;
4074;SDS011;2052;53.522;9.806;2022-12-16T12:33:57;60.17;;;31.27;;
4074;SDS011;2052;53.522;9.806;2022-12-16T12:36:44;58.20;;;30.80;;
4074;SDS011;2052;53.522;9.806;2022-12-16T12:39:34;61.00;;;29.97;;
4074;SDS011;2052;53.522;9.806;2022-12-16T12:42:23;56.87;;;30.97;;
4074;SDS011;2052;53.522;9.806;2022-12-16T12:45:22;64.77;;;31.73;;
4074;SDS011;2052;53.522;9.806;2022-12-16T12:48:17;51.30;;;28.10;;
4074;SDS011;2052;53.522;9.806;2022-12-16T12:51:04;50.00;;;29.20;;
4074;SDS011;2052;53.522;9.806;2022-12-16T12:53:54;56.97;;;28.70;;
4074;SDS011;2052;53.522;9.806;2022-12-16T12:56:43;64.10;;;30.37;;
4074;SDS011;2052;53.522;9.806;2022-12-16T12:59:35;56.67;;;28.47;;
4074;SDS011;2052;53.522;9.806;2022-12-16T13:02:26;64.57;;;30.80;;
4074;SDS011;2052;53.522;9.806;2022-12-16T13:05:11;61.60;;;31.33;;
4074;SDS011;2052;53.522;9.806;2022-12-16T13:11:13;71.33;;;29.30;;
4074;SDS011;2052;53.522;9.806;2022-12-16T13:13:57;62.57;;;31.37;;
4074;SDS011;2052;53.522;9.806;2022-12-16T13:16:54;56.93;;;29.03;;
4074;SDS011;2052;53.522;9.806;2022-12-16T13:19:41;74.43;;;31.30;;
4074;SDS011;2052;53.522;9.806;2022-12-16T13:22:35;63.70;;;29.77;;
4074;SDS011;2052;53.522;9.806;2022-12-16T13:25:34;61.23;;;30.47;;
4074;SDS011;2052;53.522;9.806;2022-12-16T13:28:24;61.00;;;29.60;;
4074;SDS011;2052;53.522;9.806;2022-12-16T13:31:09;60.60;;;29.90;;
4074;SDS011;2052;53.522;9.806;2022-12-16T13:33:54;65.10;;;29.47;;
4074;SDS011;2052;53.522;9.806;2022-12-16T13:36:43;62.43;;;31.03;;
4074;SDS011;2052;53.522;9.806;2022-12-16T13:39:28;57.17;;;31.10;;
4074;SDS011;2052;53.522;9.806;2022-12-16T13:45:31;66.80;;;31.57;;
4074;SDS011;2052;53.522;9.806;2022-12-16T13:54:51;75.07;;;32.97;;
4074;SDS011;2052;53.522;9.806;2022-12-16T13:57:45;61.87;;;33.03;;
4074;SDS011;2052;53.522;9.806;2022-12-16T14:00:29;60.40;;;31.93;;
4074;SDS011;2052;53.522;9.806;2022-12-16T14:03:17;64.80;;;33.27;;
4074;SDS011;2052;53.522;9.806;2022-12-16T14:06:03;56.53;;;30.13;;
4074;SDS011;2052;53.522;9.806;2022-12-16T14:08:47;58.13;;;32.33;;
4074;SDS011;2052;53.522;9.806;2022-12-16T14:11:35;75.67;;;36.17;;
4074;SDS011;2052;53.522;9.806;2022-12-16T14:14:39;62.07;;;32.10;;
4074;SDS011;2052;53.522;9.806;2022-12-16T14:17:27;63.37;;;34.13;;
4074;SDS011;2052;53.522;9.806;2022-12-16T14:20:16;65.73;;;35.60;;
4074;SDS011;2052;53.522;9.806;2022-12-16T14:23:08;75.07;;;35.70;;
4074;SDS011;2052;53.522;9.806;2022-12-16T14:25:58;66.70;;;36.30;;
4074;SDS011;2052;53.522;9.806;2022-12-16T14:28:45;68.00;;;34.80;;
4074;SDS011;2052;53.522;9.806;2022-12-16T14:31:33;89.90;;;36.80;;
4074;SDS011;2052;53.522;9.806;2022-12-16T14:34:20;73.40;;;36.47;;
4074;SDS011;2052;53.522;9.806;2022-12-16T14:37:06;76.50;;;37.83;;
4074;SDS011;2052;53.522;9.806;2022-12-16T14:39:54;70.77;;;36.13;;
4074;SDS011;2052;53.522;9.806;2022-12-16T14:42:38;74.00;;;35.00;;
4074;SDS011;2052;53.522;9.806;2022-12-16T14:45:21;70.17;;;37.40;;
4074;SDS011;2052;53.522;9.806;2022-12-16T14:48:13;70.83;;;35.27;;
4074;SDS011;2052;53.522;9.806;2022-12-16T14:54:15;65.93;;;33.90;;
4074;SDS011;2052;53.522;9.806;2022-12-16T14:57:01;75.23;;;35.17;;
4074;SDS011;2052;53.522;9.806;2022-12-16T14:59:45;123.97;;;48.60;;
4074;SDS011;2052;53.522;9.806;2022-12-16T15:02:31;83.77;;;41.67;;
4074;SDS011;2052;53.522;9.806;2022-12-16T15:05:20;72.07;;;35.30;;
4074;SDS011;2052;53.522;9.806;2022-12-16T15:08:08;88.90;;;40.30;;
4074;SDS011;2052;53.522;9.806;2022-12-16T15:10:54;100.40;;;45.67;;
4074;SDS011;2052;53.522;9.806;2022-12-16T15:13:37;82.40;;;40.97;;
4074;SDS011;2052;53.522;9.806;2022-12-16T15:16:23;95.80;;;40.70;;
4074;SDS011;2052;53.522;9.806;2022-12-16T15:19:12;92.80;;;41.63;;
4074;SDS011;2052;53.522;9.806;2022-12-16T15:22:01;86.17;;;40.27;;
4074;SDS011;2052;53.522;9.806;2022-12-16T15:24:45;87.03;;;38.90;;
4074;SDS011;2052;53.522;9.806;2022-12-16T15:27:32;94.90;;;40.40;;
4074;SDS011;2052;53.522;9.806;2022-12-16T15:30:30;123.30;;;52.10;;
4074;SDS011;2052;53.522;9.806;2022-12-16T15:33:19;128.23;;;51.70;;
4074;SDS011;2052;53.522;9.806;2022-12-16T15:36:22;128.40;;;56.10;;
4074;SDS011;2052;53.522;9.806;2022-12-16T15:39:08;93.03;;;39.60;;
4074;SDS011;2052;53.522;9.806;2022-12-16T15:41:53;71.07;;;35.33;;
4074;SDS011;2052;53.522;9.806;2022-12-16T15:44:39;87.30;;;38.30;;
4074;SDS011;2052;53.522;9.806;2022-12-16T15:47:30;86.73;;;37.07;;
4074;SDS011;2052;53.522;9.806;2022-12-16T15:50:15;84.00;;;40.50;;
4074;SDS011;2052;53.522;9.806;2022-12-16T15:53:14;74.40;;;36.93;;
4074;SDS011;2052;53.522;9.806;2022-12-16T15:55:59;77.70;;;37.90;;
4074;SDS011;2052;53.522;9.806;2022-12-16T15:58:43;79.93;;;36.27;;
4074;SDS011;2052;53.522;9.806;2022-12-16T16:01:28;77.07;;;39.73;;
4074;SDS011;2052;53.522;9.806;2022-12-16T16:04:22;77.33;;;36.37;;
4074;SDS011;2052;53.522;9.806;2022-12-16T16:07:07;82.33;;;37.80;;
4074;SDS011;2052;53.522;9.806;2022-12-16T16:10:03;72.47;;;38.70;;
4074;SDS011;2052;53.522;9.806;2022-12-16T16:12:51;73.60;;;37.17;;
4074;SDS011;2052;53.522;9.806;2022-12-16T16:15:35;81.77;;;37.07;;
4074;SDS011;2052;53.522;9.806;2022-12-16T16:18:19;68.07;;;35.27;;
4074;SDS011;2052;53.522;9.806;2022-12-16T16:21:04;91.80;;;39.23;;
4074;SDS011;2052;53.522;9.806;2022-12-16T16:23:48;86.27;;;39.40;;
4074;SDS011;2052;53.522;9.806;2022-12-16T16:26:34;82.30;;;38.03;;
4074;SDS011;2052;53.522;9.806;2022-12-16T16:29:18;79.13;;;36.60;;
4074;SDS011;2052;53.522;9.806;2022-12-16T16:32:13;80.63;;;38.23;;
4074;SDS011;2052;53.522;9.806;2022-12-16T16:34:58;97.90;;;37.83;;
4074;SDS011;2052;53.522;9.806;2022-12-16T16:37:42;76.80;;;35.20;;
4074;SDS011;2052;53.522;9.806;2022-12-16T16:40:27;78.50;;;37.50;;
4074;SDS011;2052;53.522;9.806;2022-12-16T16:43:15;80.57;;;37.13;;